sensor_id;sensor_type;location;lat;lon;timestamp;temperature;humidity
30865;DHT22;17574;49.418;11.038;2022-09-09T00:02:15;14.70;70.00
30865;DHT22;17574;49.418;11.038;2022-09-09T00:04:45;14.60;70.50
30865;DHT22;17574;49.418;11.038;2022-09-09T00:10:13;14.60;70.30
30865;DHT22;17574;49.418;11.038;2022-09-09T00:12:58;14.60;70.60
30865;DHT22;17574;49.418;11.038;2022-09-09T00:15:32;14.60;71.10
30865;DHT22;17574;49.418;11.038;2022-09-09T00:23:39;14.60;70.40
30865;DHT22;17574;49.418;11.038;2022-09-09T00:26:07;14.50;70.10
30865;DHT22;17574;49.418;11.038;2022-09-09T00:28:38;14.50;70.70
30865;DHT22;17574;49.418;11.038;2022-09-09T00:31:39;14.40;71.10
30865;DHT22;17574;49.418;11.038;2022-09-09T00:34:22;14.40;72.60
30865;DHT22;17574;49.418;11.038;2022-09-09T00:36:45;14.50;72.80
30865;DHT22;17574;49.418;11.038;2022-09-09T00:39:27;14.50;71.50
30865;DHT22;17574;49.418;11.038;2022-09-09T00:47:06;14.30;71.80
30865;DHT22;17574;49.418;11.038;2022-09-09T00:49:41;14.30;72.60
30865;DHT22;17574;49.418;11.038;2022-09-09T00:55:11;14.30;72.40
30865;DHT22;17574;49.418;11.038;2022-09-09T00:57:39;14.20;72.50
30865;DHT22;17574;49.418;11.038;2022-09-09T01:00:24;14.30;72.60
30865;DHT22;17574;49.418;11.038;2022-09-09T01:08:05;14.20;72.50
30865;DHT22;17574;49.418;11.038;2022-09-09T01:10:48;14.10;72.40
30865;DHT22;17574;49.418;11.038;2022-09-09T01:13:26;14.10;72.50
30865;DHT22;17574;49.418;11.038;2022-09-09T01:15:57;14.10;72.50
30865;DHT22;17574;49.418;11.038;2022-09-09T01:18:28;14.10;72.40
30865;DHT22;17574;49.418;11.038;2022-09-09T01:21:17;14.10;72.40
30865;DHT22;17574;49.418;11.038;2022-09-09T01:23:51;14.00;72.40
30865;DHT22;17574;49.418;11.038;2022-09-09T01:26:27;14.00;72.40
30865;DHT22;17574;49.418;11.038;2022-09-09T01:28:54;14.00;72.40
30865;DHT22;17574;49.418;11.038;2022-09-09T01:31:22;14.00;72.90
30865;DHT22;17574;49.418;11.038;2022-09-09T01:33:49;14.10;73.00
30865;DHT22;17574;49.418;11.038;2022-09-09T01:36:23;14.00;72.90
30865;DHT22;17574;49.418;11.038;2022-09-09T01:38:51;14.00;73.30
30865;DHT22;17574;49.418;11.038;2022-09-09T01:41:18;14.00;73.70
30865;DHT22;17574;49.418;11.038;2022-09-09T01:43:45;14.00;72.40
30865;DHT22;17574;49.418;11.038;2022-09-09T01:46:11;14.00;73.30
30865;DHT22;17574;49.418;11.038;2022-09-09T01:48:38;14.00;73.60
30865;DHT22;17574;49.418;11.038;2022-09-09T01:51:07;14.00;73.80
30865;DHT22;17574;49.418;11.038;2022-09-09T01:53:34;14.00;74.00
30865;DHT22;17574;49.418;11.038;2022-09-09T02:03:55;13.90;75.30
30865;DHT22;17574;49.418;11.038;2022-09-09T02:06:27;14.10;75.60
30865;DHT22;17574;49.418;11.038;2022-09-09T02:08:55;13.90;75.50
30865;DHT22;17574;49.418;11.038;2022-09-09T02:11:23;14.00;75.60
30865;DHT22;17574;49.418;11.038;2022-09-09T02:13:54;13.90;75.80
30865;DHT22;17574;49.418;11.038;2022-09-09T02:16:23;13.90;76.00
30865;DHT22;17574;49.418;11.038;2022-09-09T02:19:02;14.00;75.90
30865;DHT22;17574;49.418;11.038;2022-09-09T02:21:33;14.00;75.80
30865;DHT22;17574;49.418;11.038;2022-09-09T02:24:01;14.00;75.90
30865;DHT22;17574;49.418;11.038;2022-09-09T02:26:31;14.00;75.50
30865;DHT22;17574;49.418;11.038;2022-09-09T02:29:01;14.00;75.70
30865;DHT22;17574;49.418;11.038;2022-09-09T02:31:28;14.00;75.70
30865;DHT22;17574;49.418;11.038;2022-09-09T02:33:56;13.90;76.00
30865;DHT22;17574;49.418;11.038;2022-09-09T02:36:25;14.00;75.80
30865;DHT22;17574;49.418;11.038;2022-09-09T02:38:52;14.00;75.80
30865;DHT22;17574;49.418;11.038;2022-09-09T02:41:20;14.00;75.80
30865;DHT22;17574;49.418;11.038;2022-09-09T02:43:49;14.00;74.80
30865;DHT22;17574;49.418;11.038;2022-09-09T02:52:02;14.00;73.90
30865;DHT22;17574;49.418;11.038;2022-09-09T02:54:10;14.10;72.90
30865;DHT22;17574;49.418;11.038;2022-09-09T02:56:38;14.10;74.10
30865;DHT22;17574;49.418;11.038;2022-09-09T02:59:06;14.10;74.40
30865;DHT22;17574;49.418;11.038;2022-09-09T03:01:33;14.20;74.50
30865;DHT22;17574;49.418;11.038;2022-09-09T03:03:59;14.10;72.50
30865;DHT22;17574;49.418;11.038;2022-09-09T03:06:26;14.20;72.50
30865;DHT22;17574;49.418;11.038;2022-09-09T03:08:53;14.20;72.50
30865;DHT22;17574;49.418;11.038;2022-09-09T03:11:20;14.10;72.40
30865;DHT22;17574;49.418;11.038;2022-09-09T03:13:46;14.10;72.50
30865;DHT22;17574;49.418;11.038;2022-09-09T03:16:13;14.20;72.50
30865;DHT22;17574;49.418;11.038;2022-09-09T03:18:41;14.20;71.60
30865;DHT22;17574;49.418;11.038;2022-09-09T03:21:08;14.10;72.40
30865;DHT22;17574;49.418;11.038;2022-09-09T03:23:35;14.20;72.50
30865;DHT22;17574;49.418;11.038;2022-09-09T03:26:02;14.10;72.50
30865;DHT22;17574;49.418;11.038;2022-09-09T03:28:28;14.10;72.40
30865;DHT22;17574;49.418;11.038;2022-09-09T03:31:01;14.10;72.40
30865;DHT22;17574;49.418;11.038;2022-09-09T03:33:28;14.10;72.40
30865;DHT22;17574;49.418;11.038;2022-09-09T03:35:55;14.10;72.40
30865;DHT22;17574;49.418;11.038;2022-09-09T03:38:23;14.00;72.30
30865;DHT22;17574;49.418;11.038;2022-09-09T03:40:50;14.10;72.30
30865;DHT22;17574;49.418;11.038;2022-09-09T03:43:17;14.10;72.40
30865;DHT22;17574;49.418;11.038;2022-09-09T03:45:47;14.10;72.40
30865;DHT22;17574;49.418;11.038;2022-09-09T03:48:14;14.10;72.40
30865;DHT22;17574;49.418;11.038;2022-09-09T03:50:45;14.10;72.50
30865;DHT22;17574;49.418;11.038;2022-09-09T03:53:12;14.20;72.50
30865;DHT22;17574;49.418;11.038;2022-09-09T03:55:38;14.20;72.60
30865;DHT22;17574;49.418;11.038;2022-09-09T03:58:05;14.20;72.50
30865;DHT22;17574;49.418;11.038;2022-09-09T04:00:31;14.20;72.50
30865;DHT22;17574;49.418;11.038;2022-09-09T04:02:58;14.20;72.50
30865;DHT22;17574;49.418;11.038;2022-09-09T04:05:25;14.30;72.60
30865;DHT22;17574;49.418;11.038;2022-09-09T04:07:51;14.30;72.60
30865;DHT22;17574;49.418;11.038;2022-09-09T04:10:18;14.20;72.50
30865;DHT22;17574;49.418;11.038;2022-09-09T04:12:44;14.20;71.70
30865;DHT22;17574;49.418;11.038;2022-09-09T04:15:15;14.20;72.50
30865;DHT22;17574;49.418;11.038;2022-09-09T04:17:41;14.30;72.60
30865;DHT22;17574;49.418;11.038;2022-09-09T04:20:08;14.30;72.60
30865;DHT22;17574;49.418;11.038;2022-09-09T04:22:38;14.30;72.50
30865;DHT22;17574;49.418;11.038;2022-09-09T04:25:08;14.30;71.10
30865;DHT22;17574;49.418;11.038;2022-09-09T04:27:34;14.30;72.30
30865;DHT22;17574;49.418;11.038;2022-09-09T04:30:01;14.30;72.60
30865;DHT22;17574;49.418;11.038;2022-09-09T04:32:27;14.20;72.50
30865;DHT22;17574;49.418;11.038;2022-09-09T04:34:54;14.30;72.60
30865;DHT22;17574;49.418;11.038;2022-09-09T04:37:21;14.30;72.60
30865;DHT22;17574;49.418;11.038;2022-09-09T04:39:47;14.30;72.60
30865;DHT22;17574;49.418;11.038;2022-09-09T04:42:14;14.30;72.60
30865;DHT22;17574;49.418;11.038;2022-09-09T04:44:42;14.30;72.60
30865;DHT22;17574;49.418;11.038;2022-09-09T04:47:09;14.30;72.60
30865;DHT22;17574;49.418;11.038;2022-09-09T04:49:36;14.30;72.00
30865;DHT22;17574;49.418;11.038;2022-09-09T04:52:03;14.30;72.60
30865;DHT22;17574;49.418;11.038;2022-09-09T04:54:30;14.30;72.60
30865;DHT22;17574;49.418;11.038;2022-09-09T04:56:56;14.30;72.60
30865;DHT22;17574;49.418;11.038;2022-09-09T04:59:23;14.40;72.70
30865;DHT22;17574;49.418;11.038;2022-09-09T05:01:49;14.40;72.70
30865;DHT22;17574;49.418;11.038;2022-09-09T05:04:16;14.40;72.70
30865;DHT22;17574;49.418;11.038;2022-09-09T05:06:43;14.40;72.70
30865;DHT22;17574;49.418;11.038;2022-09-09T05:09:09;14.40;72.70
30865;DHT22;17574;49.418;11.038;2022-09-09T05:11:36;14.40;72.70
30865;DHT22;17574;49.418;11.038;2022-09-09T05:14:03;14.40;72.60
30865;DHT22;17574;49.418;11.038;2022-09-09T05:16:30;14.40;70.90
30865;DHT22;17574;49.418;11.038;2022-09-09T05:18:56;14.40;70.30
30865;DHT22;17574;49.418;11.038;2022-09-09T05:21:25;14.40;70.10
30865;DHT22;17574;49.418;11.038;2022-09-09T05:23:52;14.40;69.80
30865;DHT22;17574;49.418;11.038;2022-09-09T05:26:20;14.50;69.60
30865;DHT22;17574;49.418;11.038;2022-09-09T05:28:47;14.50;68.50
30865;DHT22;17574;49.418;11.038;2022-09-09T05:31:14;14.60;68.20
30865;DHT22;17574;49.418;11.038;2022-09-09T05:33:42;14.70;67.70
30865;DHT22;17574;49.418;11.038;2022-09-09T05:36:10;14.70;66.60
30865;DHT22;17574;49.418;11.038;2022-09-09T05:38:39;14.80;66.00
30865;DHT22;17574;49.418;11.038;2022-09-09T05:41:07;14.80;65.50
30865;DHT22;17574;49.418;11.038;2022-09-09T05:43:34;14.90;64.40
30865;DHT22;17574;49.418;11.038;2022-09-09T05:46:03;14.90;64.40
30865;DHT22;17574;49.418;11.038;2022-09-09T05:48:34;14.90;64.40
30865;DHT22;17574;49.418;11.038;2022-09-09T05:51:02;14.80;64.20
30865;DHT22;17574;49.418;11.038;2022-09-09T05:53:31;14.90;64.40
30865;DHT22;17574;49.418;11.038;2022-09-09T05:56:08;14.90;64.40
30865;DHT22;17574;49.418;11.038;2022-09-09T05:58:38;14.90;64.30
30865;DHT22;17574;49.418;11.038;2022-09-09T06:01:06;14.90;63.70
30865;DHT22;17574;49.418;11.038;2022-09-09T06:03:39;14.80;63.50
30865;DHT22;17574;49.418;11.038;2022-09-09T06:06:13;14.80;63.60
30865;DHT22;17574;49.418;11.038;2022-09-09T06:08:41;14.90;62.50
30865;DHT22;17574;49.418;11.038;2022-09-09T06:11:11;14.90;61.60
30865;DHT22;17574;49.418;11.038;2022-09-09T06:13:39;15.00;62.40
30865;DHT22;17574;49.418;11.038;2022-09-09T06:16:08;15.30;62.50
30865;DHT22;17574;49.418;11.038;2022-09-09T06:18:34;15.60;57.70
30865;DHT22;17574;49.418;11.038;2022-09-09T06:21:02;15.80;55.70
30865;DHT22;17574;49.418;11.038;2022-09-09T06:23:33;16.20;53.40
30865;DHT22;17574;49.418;11.038;2022-09-09T06:26:25;16.60;44.20
30865;DHT22;17574;49.418;11.038;2022-09-09T06:28:49;16.70;39.90
30865;DHT22;17574;49.418;11.038;2022-09-09T06:31:17;16.80;40.40
30865;DHT22;17574;49.418;11.038;2022-09-09T06:33:43;16.90;35.70
30865;DHT22;17574;49.418;11.038;2022-09-09T06:36:15;16.90;37.60
30865;DHT22;17574;49.418;11.038;2022-09-09T06:38:42;16.80;37.60
30865;DHT22;17574;49.418;11.038;2022-09-09T06:41:09;16.80;39.40
30865;DHT22;17574;49.418;11.038;2022-09-09T06:43:36;16.80;38.80
30865;DHT22;17574;49.418;11.038;2022-09-09T06:46:04;17.30;38.00
30865;DHT22;17574;49.418;11.038;2022-09-09T06:48:31;17.10;38.60
30865;DHT22;17574;49.418;11.038;2022-09-09T06:53:28;17.60;33.20
30865;DHT22;17574;49.418;11.038;2022-09-09T06:55:56;17.90;29.40
30865;DHT22;17574;49.418;11.038;2022-09-09T06:58:22;18.10;28.20
30865;DHT22;17574;49.418;11.038;2022-09-09T07:00:49;18.50;26.30
30865;DHT22;17574;49.418;11.038;2022-09-09T07:03:16;18.70;22.40
30865;DHT22;17574;49.418;11.038;2022-09-09T07:05:42;19.30;18.30
30865;DHT22;17574;49.418;11.038;2022-09-09T07:08:10;20.00;16.80
30865;DHT22;17574;49.418;11.038;2022-09-09T07:10:37;20.50;9.30
30865;DHT22;17574;49.418;11.038;2022-09-09T07:13:03;20.90;8.20
30865;DHT22;17574;49.418;11.038;2022-09-09T07:15:30;20.60;5.10
30865;DHT22;17574;49.418;11.038;2022-09-09T07:18:00;20.40;8.00
30865;DHT22;17574;49.418;11.038;2022-09-09T07:20:27;19.80;7.60
30865;DHT22;17574;49.418;11.038;2022-09-09T07:22:54;19.60;10.90
30865;DHT22;17574;49.418;11.038;2022-09-09T07:25:21;19.40;12.20
30865;DHT22;17574;49.418;11.038;2022-09-09T07:27:48;19.30;12.10
30865;DHT22;17574;49.418;11.038;2022-09-09T07:30:15;19.20;13.00
30865;DHT22;17574;49.418;11.038;2022-09-09T07:32:51;19.20;13.10
30865;DHT22;17574;49.418;11.038;2022-09-09T07:35:18;19.90;10.60
30865;DHT22;17574;49.418;11.038;2022-09-09T07:37:44;21.30;3.70
30865;DHT22;17574;49.418;11.038;2022-09-09T07:40:16;22.90;1.00
30865;DHT22;17574;49.418;11.038;2022-09-09T07:42:43;24.20;1.00
30865;DHT22;17574;49.418;11.038;2022-09-09T07:45:09;24.10;1.00
30865;DHT22;17574;49.418;11.038;2022-09-09T07:47:36;24.40;1.00
30865;DHT22;17574;49.418;11.038;2022-09-09T07:50:03;25.10;1.00
30865;DHT22;17574;49.418;11.038;2022-09-09T07:52:29;25.70;1.00
30865;DHT22;17574;49.418;11.038;2022-09-09T07:54:56;26.40;1.00
30865;DHT22;17574;49.418;11.038;2022-09-09T07:57:23;26.30;1.00
30865;DHT22;17574;49.418;11.038;2022-09-09T07:59:49;26.70;1.00
30865;DHT22;17574;49.418;11.038;2022-09-09T08:02:17;26.80;1.00
30865;DHT22;17574;49.418;11.038;2022-09-09T08:04:43;26.90;1.00
30865;DHT22;17574;49.418;11.038;2022-09-09T08:07:10;27.30;1.00
30865;DHT22;17574;49.418;11.038;2022-09-09T08:09:37;27.80;1.00
30865;DHT22;17574;49.418;11.038;2022-09-09T08:12:03;28.20;1.00
30865;DHT22;17574;49.418;11.038;2022-09-09T08:14:31;28.60;1.00
30865;DHT22;17574;49.418;11.038;2022-09-09T08:16:58;28.70;1.00
30865;DHT22;17574;49.418;11.038;2022-09-09T08:19:25;29.40;1.00
30865;DHT22;17574;49.418;11.038;2022-09-09T08:21:52;29.80;1.00
30865;DHT22;17574;49.418;11.038;2022-09-09T08:24:19;30.20;1.00
30865;DHT22;17574;49.418;11.038;2022-09-09T08:26:46;30.50;1.00
30865;DHT22;17574;49.418;11.038;2022-09-09T08:29:16;30.90;1.00
30865;DHT22;17574;49.418;11.038;2022-09-09T08:31:47;31.60;1.00
30865;DHT22;17574;49.418;11.038;2022-09-09T08:34:14;31.30;1.00
30865;DHT22;17574;49.418;11.038;2022-09-09T08:36:44;30.70;1.00
30865;DHT22;17574;49.418;11.038;2022-09-09T08:39:12;29.40;1.00
30865;DHT22;17574;49.418;11.038;2022-09-09T08:41:46;28.90;1.00
30865;DHT22;17574;49.418;11.038;2022-09-09T08:49:49;27.60;1.00
30865;DHT22;17574;49.418;11.038;2022-09-09T08:52:09;27.30;1.00
30865;DHT22;17574;49.418;11.038;2022-09-09T08:54:39;27.50;1.00
30865;DHT22;17574;49.418;11.038;2022-09-09T08:57:19;27.60;1.00
30865;DHT22;17574;49.418;11.038;2022-09-09T08:59:46;27.80;1.00
30865;DHT22;17574;49.418;11.038;2022-09-09T09:02:17;28.00;1.00
30865;DHT22;17574;49.418;11.038;2022-09-09T09:07:28;28.00;1.00
30865;DHT22;17574;49.418;11.038;2022-09-09T09:10:21;28.10;1.00
30865;DHT22;17574;49.418;11.038;2022-09-09T09:13:14;28.10;1.00
30865;DHT22;17574;49.418;11.038;2022-09-09T09:15:42;28.10;1.00
30865;DHT22;17574;49.418;11.038;2022-09-09T09:18:10;28.20;1.00
30865;DHT22;17574;49.418;11.038;2022-09-09T09:23:09;28.20;1.00
30865;DHT22;17574;49.418;11.038;2022-09-09T09:25:41;28.00;1.00
30865;DHT22;17574;49.418;11.038;2022-09-09T09:28:14;27.70;1.00
30865;DHT22;17574;49.418;11.038;2022-09-09T09:30:51;27.50;1.00
30865;DHT22;17574;49.418;11.038;2022-09-09T09:33:30;27.40;1.00
30865;DHT22;17574;49.418;11.038;2022-09-09T09:35:59;27.50;1.00
30865;DHT22;17574;49.418;11.038;2022-09-09T09:38:26;27.60;1.00
30865;DHT22;17574;49.418;11.038;2022-09-09T09:41:14;27.60;1.00
30865;DHT22;17574;49.418;11.038;2022-09-09T09:43:41;27.80;1.00
30865;DHT22;17574;49.418;11.038;2022-09-09T09:46:20;28.00;1.00
30865;DHT22;17574;49.418;11.038;2022-09-09T09:48:56;28.00;1.00
30865;DHT22;17574;49.418;11.038;2022-09-09T09:51:23;28.30;1.00
30865;DHT22;17574;49.418;11.038;2022-09-09T09:53:51;28.30;1.00
30865;DHT22;17574;49.418;11.038;2022-09-09T09:56:26;28.00;1.00
30865;DHT22;17574;49.418;11.038;2022-09-09T09:58:55;28.00;1.00
30865;DHT22;17574;49.418;11.038;2022-09-09T10:01:22;28.20;1.00
30865;DHT22;17574;49.418;11.038;2022-09-09T10:03:55;28.40;1.00
30865;DHT22;17574;49.418;11.038;2022-09-09T10:06:33;28.30;1.00
30865;DHT22;17574;49.418;11.038;2022-09-09T10:09:00;28.20;1.00
30865;DHT22;17574;49.418;11.038;2022-09-09T10:11:44;27.80;1.00
30865;DHT22;17574;49.418;11.038;2022-09-09T10:14:23;27.90;1.00
30865;DHT22;17574;49.418;11.038;2022-09-09T10:16:55;27.90;1.00
30865;DHT22;17574;49.418;11.038;2022-09-09T10:19:29;27.60;1.00
30865;DHT22;17574;49.418;11.038;2022-09-09T10:22:02;27.70;1.00
30865;DHT22;17574;49.418;11.038;2022-09-09T10:32:47;28.60;1.00
30865;DHT22;17574;49.418;11.038;2022-09-09T10:35:21;28.80;1.00
30865;DHT22;17574;49.418;11.038;2022-09-09T10:42:59;28.50;1.00
30865;DHT22;17574;49.418;11.038;2022-09-09T10:45:37;28.10;1.00
30865;DHT22;17574;49.418;11.038;2022-09-09T10:50:54;31.20;1.00
30865;DHT22;17574;49.418;11.038;2022-09-09T10:53:35;32.20;1.00
30865;DHT22;17574;49.418;11.038;2022-09-09T10:56:10;32.70;1.00
30865;DHT22;17574;49.418;11.038;2022-09-09T10:58:43;33.90;1.00
30865;DHT22;17574;49.418;11.038;2022-09-09T11:01:15;34.60;1.00
30865;DHT22;17574;49.418;11.038;2022-09-09T11:03:43;33.80;1.00
30865;DHT22;17574;49.418;11.038;2022-09-09T11:06:14;32.80;1.00
30865;DHT22;17574;49.418;11.038;2022-09-09T11:08:43;32.40;1.00
30865;DHT22;17574;49.418;11.038;2022-09-09T11:11:11;32.10;1.00
30865;DHT22;17574;49.418;11.038;2022-09-09T11:13:40;31.60;1.00
30865;DHT22;17574;49.418;11.038;2022-09-09T11:18:38;32.30;1.00
30865;DHT22;17574;49.418;11.038;2022-09-09T11:21:07;31.90;1.00
30865;DHT22;17574;49.418;11.038;2022-09-09T11:23:39;31.30;1.00
30865;DHT22;17574;49.418;11.038;2022-09-09T11:26:07;30.80;1.00
30865;DHT22;17574;49.418;11.038;2022-09-09T11:28:48;30.70;1.00
30865;DHT22;17574;49.418;11.038;2022-09-09T11:37:10;29.10;1.00
30865;DHT22;17574;49.418;11.038;2022-09-09T11:42:25;29.30;1.00
30865;DHT22;17574;49.418;11.038;2022-09-09T11:44:52;29.40;1.00
30865;DHT22;17574;49.418;11.038;2022-09-09T11:52:45;28.90;1.00
30865;DHT22;17574;49.418;11.038;2022-09-09T11:55:31;28.40;1.00
30865;DHT22;17574;49.418;11.038;2022-09-09T11:58:03;28.20;1.00
30865;DHT22;17574;49.418;11.038;2022-09-09T12:00:32;27.80;1.00
30865;DHT22;17574;49.418;11.038;2022-09-09T12:02:59;27.40;1.00
30865;DHT22;17574;49.418;11.038;2022-09-09T12:05:42;27.20;1.00
30865;DHT22;17574;49.418;11.038;2022-09-09T12:08:10;27.00;1.00
30865;DHT22;17574;49.418;11.038;2022-09-09T12:10:38;26.60;1.00
30865;DHT22;17574;49.418;11.038;2022-09-09T12:13:16;26.40;1.00
30865;DHT22;17574;49.418;11.038;2022-09-09T12:15:47;26.00;1.00
30865;DHT22;17574;49.418;11.038;2022-09-09T12:18:15;25.60;1.00
30865;DHT22;17574;49.418;11.038;2022-09-09T12:20:52;25.30;1.00
30865;DHT22;17574;49.418;11.038;2022-09-09T12:23:23;25.20;1.00
30865;DHT22;17574;49.418;11.038;2022-09-09T12:28:39;26.10;1.00
30865;DHT22;17574;49.418;11.038;2022-09-09T12:31:11;26.90;1.00
30865;DHT22;17574;49.418;11.038;2022-09-09T12:33:45;27.30;1.00
30865;DHT22;17574;49.418;11.038;2022-09-09T12:36:15;28.20;1.00
30865;DHT22;17574;49.418;11.038;2022-09-09T12:38:42;29.10;1.00
30865;DHT22;17574;49.418;11.038;2022-09-09T12:41:19;30.60;1.00
30865;DHT22;17574;49.418;11.038;2022-09-09T12:43:46;31.80;1.00
30865;DHT22;17574;49.418;11.038;2022-09-09T12:46:26;32.90;1.00
30865;DHT22;17574;49.418;11.038;2022-09-09T12:48:55;33.70;1.00
30865;DHT22;17574;49.418;11.038;2022-09-09T12:51:29;34.80;1.00
30865;DHT22;17574;49.418;11.038;2022-09-09T12:53:57;35.50;1.00
30865;DHT22;17574;49.418;11.038;2022-09-09T12:56:25;35.50;1.00
30865;DHT22;17574;49.418;11.038;2022-09-09T12:58:56;34.50;1.00
30865;DHT22;17574;49.418;11.038;2022-09-09T13:01:30;33.70;1.00
30865;DHT22;17574;49.418;11.038;2022-09-09T13:03:57;32.90;1.00
30865;DHT22;17574;49.418;11.038;2022-09-09T13:06:31;31.60;1.00
30865;DHT22;17574;49.418;11.038;2022-09-09T13:08:59;29.90;1.00
30865;DHT22;17574;49.418;11.038;2022-09-09T13:11:27;28.80;1.00
30865;DHT22;17574;49.418;11.038;2022-09-09T13:13:56;27.60;1.00
30865;DHT22;17574;49.418;11.038;2022-09-09T13:16:27;27.30;1.00
30865;DHT22;17574;49.418;11.038;2022-09-09T13:19:02;27.70;1.00
30865;DHT22;17574;49.418;11.038;2022-09-09T13:21:33;27.90;1.00
30865;DHT22;17574;49.418;11.038;2022-09-09T13:24:00;28.50;1.00
30865;DHT22;17574;49.418;11.038;2022-09-09T13:26:29;29.80;1.00
30865;DHT22;17574;49.418;11.038;2022-09-09T13:29:07;30.60;1.00
30865;DHT22;17574;49.418;11.038;2022-09-09T13:31:36;31.50;1.00
30865;DHT22;17574;49.418;11.038;2022-09-09T13:36:59;31.90;1.00
30865;DHT22;17574;49.418;11.038;2022-09-09T13:39:28;32.40;1.00
30865;DHT22;17574;49.418;11.038;2022-09-09T13:41:55;32.70;1.00
30865;DHT22;17574;49.418;11.038;2022-09-09T13:47:04;32.20;1.00
30865;DHT22;17574;49.418;11.038;2022-09-09T13:49:36;32.10;1.00
30865;DHT22;17574;49.418;11.038;2022-09-09T13:52:03;32.10;1.00
30865;DHT22;17574;49.418;11.038;2022-09-09T13:54:31;32.00;1.00
30865;DHT22;17574;49.418;11.038;2022-09-09T13:56:57;31.90;1.00
30865;DHT22;17574;49.418;11.038;2022-09-09T13:59:24;31.70;1.00
30865;DHT22;17574;49.418;11.038;2022-09-09T14:02:12;31.50;1.00
30865;DHT22;17574;49.418;11.038;2022-09-09T14:04:39;31.00;1.00
30865;DHT22;17574;49.418;11.038;2022-09-09T14:07:11;30.50;1.00
30865;DHT22;17574;49.418;11.038;2022-09-09T14:09:38;30.50;1.00
30865;DHT22;17574;49.418;11.038;2022-09-09T14:12:08;30.50;1.00
30865;DHT22;17574;49.418;11.038;2022-09-09T14:14:34;30.70;1.00
30865;DHT22;17574;49.418;11.038;2022-09-09T14:17:01;30.30;1.00
30865;DHT22;17574;49.418;11.038;2022-09-09T14:19:33;29.90;1.00
30865;DHT22;17574;49.418;11.038;2022-09-09T14:22:00;29.80;1.00
30865;DHT22;17574;49.418;11.038;2022-09-09T14:24:27;29.40;1.00
30865;DHT22;17574;49.418;11.038;2022-09-09T14:26:54;28.70;1.00
30865;DHT22;17574;49.418;11.038;2022-09-09T14:29:21;27.60;1.00
30865;DHT22;17574;49.418;11.038;2022-09-09T14:31:47;26.70;1.00
30865;DHT22;17574;49.418;11.038;2022-09-09T14:34:14;26.40;1.00
30865;DHT22;17574;49.418;11.038;2022-09-09T14:36:40;26.00;1.00
30865;DHT22;17574;49.418;11.038;2022-09-09T14:39:07;25.80;1.00
30865;DHT22;17574;49.418;11.038;2022-09-09T14:41:34;25.80;1.00
30865;DHT22;17574;49.418;11.038;2022-09-09T14:44:00;25.80;1.00
30865;DHT22;17574;49.418;11.038;2022-09-09T14:46:27;25.80;1.00
30865;DHT22;17574;49.418;11.038;2022-09-09T14:48:54;25.80;1.00
30865;DHT22;17574;49.418;11.038;2022-09-09T14:51:21;25.80;1.00
30865;DHT22;17574;49.418;11.038;2022-09-09T14:53:51;25.90;1.00
30865;DHT22;17574;49.418;11.038;2022-09-09T14:56:18;26.00;1.00
30865;DHT22;17574;49.418;11.038;2022-09-09T14:58:45;26.20;1.00
30865;DHT22;17574;49.418;11.038;2022-09-09T15:01:14;26.40;1.00
30865;DHT22;17574;49.418;11.038;2022-09-09T15:03:42;26.50;1.00
30865;DHT22;17574;49.418;11.038;2022-09-09T15:06:11;26.50;1.00
30865;DHT22;17574;49.418;11.038;2022-09-09T15:08:38;26.30;1.00
30865;DHT22;17574;49.418;11.038;2022-09-09T15:11:08;26.20;1.00
30865;DHT22;17574;49.418;11.038;2022-09-09T15:13:35;26.10;1.00
30865;DHT22;17574;49.418;11.038;2022-09-09T15:16:04;26.20;1.00
30865;DHT22;17574;49.418;11.038;2022-09-09T15:18:31;26.40;1.00
30865;DHT22;17574;49.418;11.038;2022-09-09T15:20:59;26.50;1.00
30865;DHT22;17574;49.418;11.038;2022-09-09T15:23:27;26.60;1.00
30865;DHT22;17574;49.418;11.038;2022-09-09T15:25:54;26.40;1.00
30865;DHT22;17574;49.418;11.038;2022-09-09T15:28:22;26.40;1.00
30865;DHT22;17574;49.418;11.038;2022-09-09T15:30:49;26.10;1.00
30865;DHT22;17574;49.418;11.038;2022-09-09T15:33:15;25.90;1.00
30865;DHT22;17574;49.418;11.038;2022-09-09T15:35:42;25.60;1.00
30865;DHT22;17574;49.418;11.038;2022-09-09T15:38:09;25.40;1.00
30865;DHT22;17574;49.418;11.038;2022-09-09T15:40:35;25.30;1.00
30865;DHT22;17574;49.418;11.038;2022-09-09T15:43:02;25.40;1.00
30865;DHT22;17574;49.418;11.038;2022-09-09T15:45:31;25.30;1.00
30865;DHT22;17574;49.418;11.038;2022-09-09T15:48:02;25.20;1.00
30865;DHT22;17574;49.418;11.038;2022-09-09T15:50:29;25.00;1.00
30865;DHT22;17574;49.418;11.038;2022-09-09T15:52:59;25.10;1.00
30865;DHT22;17574;49.418;11.038;2022-09-09T15:55:25;25.00;1.00
30865;DHT22;17574;49.418;11.038;2022-09-09T15:57:52;25.00;1.00
30865;DHT22;17574;49.418;11.038;2022-09-09T16:00:19;24.90;1.00
30865;DHT22;17574;49.418;11.038;2022-09-09T16:02:46;24.90;1.00
30865;DHT22;17574;49.418;11.038;2022-09-09T16:05:13;24.70;1.00
30865;DHT22;17574;49.418;11.038;2022-09-09T16:07:39;24.50;1.00
30865;DHT22;17574;49.418;11.038;2022-09-09T16:10:08;24.40;1.00
30865;DHT22;17574;49.418;11.038;2022-09-09T16:12:35;24.20;1.00
30865;DHT22;17574;49.418;11.038;2022-09-09T16:15:02;24.00;1.00
30865;DHT22;17574;49.418;11.038;2022-09-09T16:17:29;23.80;1.00
30865;DHT22;17574;49.418;11.038;2022-09-09T16:19:55;23.80;1.00
30865;DHT22;17574;49.418;11.038;2022-09-09T16:22:24;23.70;1.00
30865;DHT22;17574;49.418;11.038;2022-09-09T16:24:50;23.80;1.00
30865;DHT22;17574;49.418;11.038;2022-09-09T16:27:17;23.90;1.00
30865;DHT22;17574;49.418;11.038;2022-09-09T16:29:44;23.80;1.00
30865;DHT22;17574;49.418;11.038;2022-09-09T16:32:11;23.80;1.00
30865;DHT22;17574;49.418;11.038;2022-09-09T16:34:38;23.80;1.00
30865;DHT22;17574;49.418;11.038;2022-09-09T16:37:04;23.90;1.00
30865;DHT22;17574;49.418;11.038;2022-09-09T16:39:31;23.70;1.00
30865;DHT22;17574;49.418;11.038;2022-09-09T16:41:58;23.70;1.00
30865;DHT22;17574;49.418;11.038;2022-09-09T16:44:24;23.60;1.00
30865;DHT22;17574;49.418;11.038;2022-09-09T16:46:52;23.60;1.00
30865;DHT22;17574;49.418;11.038;2022-09-09T16:49:26;23.60;1.00
30865;DHT22;17574;49.418;11.038;2022-09-09T16:51:53;23.50;1.00
30865;DHT22;17574;49.418;11.038;2022-09-09T16:54:20;23.50;1.00
30865;DHT22;17574;49.418;11.038;2022-09-09T16:56:48;23.30;1.00
30865;DHT22;17574;49.418;11.038;2022-09-09T16:59:16;23.30;1.00
30865;DHT22;17574;49.418;11.038;2022-09-09T17:01:43;23.30;1.00
30865;DHT22;17574;49.418;11.038;2022-09-09T17:04:14;23.20;1.00
30865;DHT22;17574;49.418;11.038;2022-09-09T17:06:45;23.10;1.00
30865;DHT22;17574;49.418;11.038;2022-09-09T17:09:11;23.10;1.00